ADDS METAR Data INFO
IDs: Format: Raw Decoded Include TAF

Data at: 1201 UTC 21 Jun 2018

KLMO 211055Z AUTO 00000KT 7SM CLR 13/11 A3021 RMK AO2 T01290109
KLMO 211035Z AUTO 00000KT 7SM CLR 13/11 A3021 RMK AO2 T01270107
KLMO 211015Z AUTO 00000KT 10SM CLR 13/11 A3021 RMK AO2 T01270105
KLMO 210955Z AUTO 00000KT 7SM CLR 13/11 A3021 RMK AO2 T01300105
KLMO 210935Z AUTO 00000KT 10SM CLR 14/11 A3021 RMK AO2 T01350107
KLMO 210915Z AUTO 29003KT 10SM CLR 14/11 A3021 RMK AO2 T01400111
KLMO 210855Z AUTO 00000KT 10SM CLR 14/11 A3021 RMK AO2 T01430111
KLMO 210835Z AUTO 00000KT 10SM CLR 14/11 A3022 RMK AO2 T01430109
KLMO 210815Z AUTO 31003KT 10SM CLR 16/11 A3022 RMK AO2 T01590112
KLMO 210755Z AUTO 00000KT 10SM SCT048 17/11 A3022 RMK AO2 T01650114
KLMO 210735Z AUTO 00000KT 10SM BKN050 18/11 A3023 RMK AO2 T01760111
KLMO 210715Z AUTO 00000KT 10SM SCT048 BKN065 18/10 A3023 RMK AO2 T01760104
KLMO 210655Z AUTO 00000KT 10SM SCT048 OVC065 18/10 A3024 RMK AO2 T01830104
KLMO 210635Z AUTO 00000KT 10SM BKN050 OVC065 18/10 A3024 RMK AO2 T01830101
KLMO 210615Z AUTO 00000KT 10SM OVC050 19/10 A3024 RMK AO2 T01850101
KLMO 210555Z AUTO 09006KT 10SM BKN050 OVC065 19/11 A3025 RMK AO2 T01870107
KLMO 210535Z AUTO 07004KT 10SM OVC050 19/10 A3025 RMK AO2 T01930104
KLMO 210515Z AUTO 08003KT 10SM OVC060 20/11 A3025 RMK AO2 T01970106
KLMO 210455Z AUTO 05003KT 10SM OVC060 20/11 A3025 RMK AO2 T01980108
KLMO 210435Z AUTO 00000KT 10SM OVC060 20/12 A3025 RMK AO2 T01980115
KLMO 210415Z AUTO 00000KT 10SM OVC060 19/12 A3025 RMK AO2 T01930121
KLMO 210355Z AUTO 00000KT 10SM OVC060 19/12 A3024 RMK AO2 T01920115
KLMO 210335Z AUTO 00000KT 10SM SCT065 BKN070 BKN080 20/11 A3024 RMK AO2 T01950114
KLMO 210315Z AUTO 00000KT 7SM BKN065 OVC080 21/11 A3023 RMK AO2 T02060107
KLMO 210255Z AUTO 04004KT 10SM BKN065 BKN090 21/10 A3022 RMK AO2 T02100097
KLMO 210235Z AUTO 05004KT 10SM BKN065 BKN090 21/09 A3021 RMK AO2 T02130093
KLMO 210215Z AUTO 07004KT 10SM BKN065 BKN090 22/09 A3021 RMK AO2 T02180090
KLMO 210155Z AUTO 06007KT 10SM OVC065 22/09 A3021 RMK AO2 T02210091
KLMO 210135Z AUTO 08007KT 10SM OVC065 23/09 A3020 RMK AO2 T02280092
KLMO 210115Z AUTO 08004KT 10SM OVC065 23/09 A3019 RMK AO2 T02280091
KLMO 210055Z AUTO 08006KT 10SM OVC065 23/09 A3018 RMK AO2 T02300086
KLMO 210035Z AUTO 07010G14KT 7SM BKN065 25/08 A3017 RMK AO2 T02450079
KLMO 210015Z AUTO 09004KT 10SM SCT065 23/09 A3017 RMK AO2 T02340090
KLMO 202355Z AUTO 08006KT 10SM BKN065 OVC075 24/09 A3016 RMK AO2 T02420086
KLMO 202335Z AUTO 07005KT 10SM BKN065 27/08 A3016 RMK AO2 T02690080
KLMO 202315Z AUTO 06005KT 10SM SCT060 SCT080 25/08 A3016 RMK AO2 T02500082
KLMO 202255Z AUTO 08007KT 10SM BKN060 BKN080 25/08 A3016 RMK AO2 T02510081
KLMO 202235Z AUTO 09003KT 10SM BKN060 BKN080 25/08 A3015 RMK AO2 T02520083
KLMO 202215Z AUTO 09006KT 10SM OVC065 24/08 A3015 RMK AO2 T02440084
KLMO 202155Z AUTO 06008KT 10SM BKN065 27/09 A3015 RMK AO2 T02700085
KLMO 202135Z AUTO 09009KT 10SM SCT065 SCT075 26/09 A3015 RMK AO2 T02570088
KLMO 202115Z AUTO 06008KT 10SM BKN065 BKN075 BKN090 26/08 A3015 RMK AO2 T02550077
KLMO 202055Z AUTO 06005KT 10SM SCT065 OVC075 26/08 A3015 RMK AO2 T02580080
KLMO 202035Z AUTO 13005KT 10SM BKN055 BKN075 26/08 A3015 RMK AO2 T02640080
KLMO 202015Z AUTO 36005KT 10SM SCT055 26/08 A3015 RMK AO2 T02570080
KLMO 201955Z AUTO 16003KT 10SM CLR 26/08 A3015 RMK AO2 T02630078
KLMO 201935Z AUTO 04007KT 10SM SCT100 26/08 A3016 RMK AO2 T02570081
KLMO 201915Z AUTO 10004KT 10SM SCT100 26/08 A3016 RMK AO2 T02560081
KLMO 201855Z AUTO 03005KT 10SM SCT100 26/09 A3017 RMK AO2 T02580085
KLMO 201835Z AUTO 06007KT 10SM CLR 25/08 A3017 RMK AO2 T02510083
KLMO 201815Z AUTO 03005KT 10SM CLR 24/08 A3017 RMK AO2 T02440081
KLMO 201755Z AUTO 04008KT 10SM CLR 24/08 A3017 RMK AO2 T02400084
KLMO 201735Z AUTO 01006KT 10SM CLR 24/08 A3018 RMK AO2 T02390084
KLMO 201715Z AUTO 03007KT 10SM CLR 23/08 A3019 RMK AO2 T02330077
KLMO 201655Z AUTO 07006KT 10SM CLR 24/08 A3018 RMK AO2 T02370082
KLMO 201635Z AUTO 06003KT 10SM CLR 23/10 A3018 RMK AO2 T02300098
KLMO 201615Z AUTO 07003KT 4SM HZ CLR 22/11 A3018 RMK AO2 T02200111
KLMO 201555Z AUTO 00000KT 7SM CLR 21/12 A3018 RMK AO2 T02100118
KLMO 201535Z AUTO 00000KT 7SM CLR 21/12 A3018 RMK AO2 T02060116
KLMO 201515Z AUTO 00000KT 7SM CLR 20/12 A3018 RMK AO2 T01990122
KLMO 201455Z AUTO 05004KT 7SM CLR 19/13 A3018 RMK AO2 T01940127
KLMO 201435Z AUTO 02004KT 7SM CLR 19/13 A3017 RMK AO2 T01900127
KLMO 201415Z AUTO 00000KT 7SM CLR 19/13 A3017 RMK AO2 T01850126
KLMO 201355Z AUTO 36004KT 7SM CLR 18/13 A3017 RMK AO2 T01770128
KLMO 201335Z AUTO 34004KT 5SM HZ CLR 17/13 A3017 RMK AO2 T01700125
KLMO 201315Z AUTO 00000KT 5SM HZ CLR 16/13 A3018 RMK AO2 T01560125
KLMO 201255Z AUTO 00000KT 5SM BR CLR 15/12 A3017 RMK AO2 T01460122
KLMO 201235Z AUTO 00000KT 5SM BR CLR 13/12 A3017 RMK AO2 T01330115
KLMO 201215Z AUTO 00000KT 4SM BR CLR 12/10 A3017 RMK AO2 T01190101
KLMO 201155Z AUTO 00000KT 7SM CLR 12/10 A3017 RMK AO2 T01170100
KLMO 201135Z AUTO 00000KT 7SM CLR 12/10 A3017 RMK AO2 T01170102
KLMO 201115Z AUTO 00000KT 5SM BR CLR 12/11 A3017 RMK AO2 T01210108
KLMO 201055Z AUTO 00000KT 5SM BR CLR 13/11 A3016 RMK AO2 T01260111
KLMO 201035Z AUTO 00000KT 5SM BR CLR 13/11 A3016 RMK AO2 T01300112
KLMO 201015Z AUTO 00000KT 7SM CLR 14/12 A3017 RMK AO2 T01360120
KLMO 200955Z AUTO 00000KT 7SM SCT075 14/12 A3018 RMK AO2 T01420121
KLMO 200935Z AUTO 00000KT 7SM BKN075 15/13 A3018 RMK AO2 T01500127
KLMO 200915Z AUTO 00000KT 7SM SCT023 SCT033 OVC075 15/13 A3018 RMK AO2 T01520129
KLMO 200855Z AUTO 00000KT 7SM SCT009 BKN022 OVC080 16/13 A3020 RMK AO2 T01550131
KLMO 200835Z AUTO 00000KT 7SM SCT017 BKN080 OVC110 16/13 A3021 RMK AO2 T01560131
KLMO 200815Z AUTO 00000KT 10SM -RA SCT017 SCT080 OVC090 16/13 A3021 RMK AO2 T01560130
KLMO 200755Z AUTO 00000KT 10SM DZ BKN015 OVC075 16/13 A3021 RMK AO2 T01560129
KLMO 200735Z AUTO 00000KT 7SM SCT015 BKN075 OVC100 16/13 A3021 RMK AO2 T01550125
KLMO 200715Z AUTO 00000KT 7SM BKN075 OVC110 15/12 A3021 RMK AO2 T01500123
KLMO 200655Z AUTO 00000KT 7SM SCT075 OVC085 15/12 A3021 RMK AO2 T01470122
KLMO 200635Z AUTO 00000KT 7SM SCT065 BKN075 BKN100 15/12 A3021 RMK AO2 T01460119
KLMO 200615Z AUTO 00000KT 7SM SCT075 SCT110 15/12 A3020 RMK AO2 T01510120
KLMO 200555Z AUTO 00000KT 7SM CLR 16/12 A3019 RMK AO2 T01550121
KLMO 200535Z AUTO 00000KT 7SM SCT070 16/12 A3018 RMK AO2 T01580116
KLMO 200515Z AUTO 10003KT 7SM SCT060 BKN070 BKN110 16/12 A3017 RMK AO2 T01570115
KLMO 200455Z AUTO 00000KT 7SM SCT080 SCT110 16/11 A3016 RMK AO2 T01610114
KLMO 200435Z AUTO 00000KT 10SM BKN070 17/11 A3015 RMK AO2 T01660109
KLMO 200415Z AUTO 00000KT 10SM OVC070 17/10 A3015 RMK AO2 T01700103
KLMO 200355Z AUTO 00000KT 7SM BKN070 16/10 A3015 RMK AO2 T01640103
KLMO 200335Z AUTO 00000KT 7SM SCT070 SCT085 17/10 A3014 RMK AO2 T01680103
KLMO 200315Z AUTO 00000KT 10SM SCT070 BKN095 BKN120 17/10 A3014 RMK AO2 T01700101
KLMO 200255Z AUTO 31005KT 7SM OVC060 17/11 A3014 RMK AO2 T01730105
KLMO 200235Z AUTO 32004KT 7SM OVC060 17/11 A3014 RMK AO2 T01720108
KLMO 200215Z AUTO 34004KT 5SM HZ OVC060 17/11 A3015 RMK AO2 T01730107
KLMO 200155Z AUTO 33007KT 7SM OVC050 17/11 A3014 RMK AO2 T01730111
KLMO 200135Z AUTO 35010G20KT 7SM OVC049 18/11 A3012 RMK AO2 T01760110
KLMO 200115Z AUTO 32009KT 5SM HZ BKN043 OVC049 18/10 A3011 RMK AO2 T01780103
KLMO 200055Z AUTO 35012G18KT 7SM BKN040 OVC047 18/10 A3011 RMK AO2 T01790096
KLMO 200035Z AUTO 01011G25KT 5SM HZ BKN036 BKN045 OVC055 18/09 A3008 RMK AO2 T01800088
KLMO 200015Z AUTO 02016G25KT 7SM SCT036 BKN045 OVC049 19/12 A3008 RMK AO2 T01880115